Time;durP1;ratioP1;P1;durP2;ratioP2;P2;SDS_P1;SDS_P2;PMS_P1;PMS_P2;Temp;Humidity;BMP_temperature;BMP_pressure;BME280_temperature;BME280_humidity;BME280_pressure;Samples;Min_cycle;Max_cycle;Signal;HPM_P1;HPM_P2
2023/03/19 00:01:05;;;;;;;17.02;15.45;;;13.40;99.90;;;13.77;100.00;100885.81;4995561;28;20407;-67
2023/03/19 00:03:35;;;;;;;18.45;14.88;;;13.40;99.90;;;13.74;100.00;100880.59;4995413;28;20449;-67
2023/03/19 00:06:04;;;;;;;15.68;14.23;;;13.40;99.90;;;13.72;100.00;100880.63;4995408;28;20080;-68
2023/03/19 00:08:32;;;;;;;15.45;14.10;;;13.40;99.90;;;13.04;100.00;100770.16;4993884;28;20070;-70
2023/03/19 00:11:07;;;;;;;16.55;15.05;;;13.30;99.90;;;13.67;99.73;100890.44;4995139;28;20428;-69
2023/03/19 00:13:35;;;;;;;15.82;14.13;;;13.30;99.90;;;13.68;99.50;100894.84;4995274;28;20097;-70
2023/03/19 00:16:05;;;;;;;15.90;14.27;;;13.30;99.90;;;13.67;99.12;100893.09;4995212;28;20491;-69
2023/03/19 00:18:35;;;;;;;15.70;14.13;;;13.30;99.90;;;13.64;98.87;100889.59;4995044;28;20051;-69
2023/03/19 00:21:03;;;;;;;15.25;13.77;;;13.30;99.90;;;13.71;98.65;100896.56;4995088;28;20097;-69
2023/03/19 00:23:32;;;;;;;15.63;14.13;;;13.30;99.90;;;13.71;98.42;100899.22;4993731;28;20084;-70
2023/03/19 00:26:00;;;;;;;16.17;14.50;;;13.40;99.90;;;13.70;98.12;100902.78;4995016;28;20046;-70
2023/03/19 00:28:29;;;;;;;17.02;15.43;;;13.30;99.90;;;13.65;97.45;100909.94;4995073;28;20507;-70
2023/03/19 00:30:57;;;;;;;20.83;18.63;;;13.20;99.90;;;13.62;97.12;100904.69;4994774;28;20054;-70
2023/03/19 00:33:26;;;;;;;20.35;18.27;;;13.20;99.90;;;13.52;97.12;100910.16;4993609;28;20069;-70
2023/03/19 00:35:57;;;;;;;22.38;18.63;;;13.10;99.90;;;13.42;97.28;100905.91;4994841;28;20089;-68
2023/03/19 00:38:26;;;;;;;21.42;19.20;;;13.10;99.90;;;13.40;97.36;100909.47;4993490;28;20051;-70
2023/03/19 00:40:54;;;;;;;20.83;18.58;;;13.00;99.90;;;13.40;97.73;100912.13;4994759;28;20042;-69
2023/03/19 00:43:23;;;;;;;20.17;18.08;;;13.00;99.90;;;13.39;97.29;100907.72;4994508;28;20058;-70
2023/03/19 00:45:51;;;;;;;23.48;18.90;;;13.00;99.90;;;13.40;96.87;100910.34;4993086;28;20052;-69
2023/03/19 00:48:20;;;;;;;22.92;18.25;;;13.00;99.90;;;13.36;96.52;100913.06;4994657;28;20049;-70
2023/03/19 00:50:48;;;;;;;27.40;18.77;;;13.00;99.90;;;13.34;96.63;100915.75;4992582;28;20530;-70
2023/03/19 00:53:19;;;;;;;24.05;18.10;;;13.00;99.90;;;13.35;96.30;100909.56;4993284;28;20085;-70
2023/03/19 00:55:48;;;;;;;22.50;18.48;;;13.00;99.90;;;13.31;95.72;100904.31;4994464;28;20050;-70
2023/03/19 00:58:16;;;;;;;24.92;19.58;;;13.00;99.90;;;13.40;95.89;100915.66;4994277;28;20061;-70
2023/03/19 01:00:45;;;;;;;22.00;18.73;;;13.00;99.90;;;13.42;95.40;100919.19;4993229;28;20050;-70
2023/03/19 01:03:14;;;;;;;23.40;19.70;;;13.00;99.90;;;13.40;94.70;100923.63;4994359;28;20540;-70
2023/03/19 01:05:43;;;;;;;24.63;21.02;;;13.00;99.90;;;13.40;94.42;100931.59;4994294;28;20552;-70
2023/03/19 01:08:13;;;;;;;22.80;19.65;;;13.00;99.90;;;13.34;94.39;100918.41;4993011;28;20408;-70
2023/03/19 01:10:43;;;;;;;26.38;20.52;;;12.90;99.90;;;13.30;93.98;100914.03;4994152;28;20038;-70
2023/03/19 01:13:12;;;;;;;26.42;21.40;;;13.00;99.90;;;13.31;93.74;100931.75;4993021;28;20105;-70
2023/03/19 01:15:43;;;;;;;24.85;21.02;;;12.90;99.90;;;13.34;93.42;100926.38;4992947;28;20044;-70
2023/03/19 01:18:12;;;;;;;27.65;21.77;;;12.90;99.90;;;13.31;93.71;100930.88;4994150;28;20046;-70
2023/03/19 01:20:42;;;;;;;27.88;21.40;;;12.90;99.90;;;13.31;93.61;100934.41;4994147;28;20124;-70
2023/03/19 01:23:10;;;;;;;25.65;21.13;;;12.90;99.90;;;13.30;93.39;100932.63;4993974;28;20046;-70
2023/03/19 01:25:40;;;;;;;29.70;21.88;;;12.90;99.90;;;13.28;92.82;100934.44;4992882;28;20050;-70
2023/03/19 01:28:10;;;;;;;25.58;21.50;;;12.90;99.90;;;13.21;92.41;100927.47;4994365;28;20056;-70
2023/03/19 01:30:40;;;;;;;25.90;21.38;;;12.80;99.90;;;13.10;92.36;100917.91;4994178;28;20050;-70
2023/03/19 01:33:29;;;;;;;27.67;21.15;;;12.80;99.90;;;13.10;92.34;100925.88;4992423;28;20471;-70
2023/03/19 01:36:02;;;;;;;24.75;20.73;;;12.80;99.90;;;12.96;92.04;100907.44;4993076;28;20529;-70
2023/03/19 01:38:38;;;;;;;28.38;21.58;;;12.70;99.90;;;13.01;92.15;100916.19;4993257;28;20515;-70
2023/03/19 01:41:13;;;;;;;25.90;22.08;;;12.70;99.90;;;13.02;91.97;100914.44;4992807;28;20408;-70
2023/03/19 01:43:42;;;;;;;23.85;20.05;;;12.70;99.90;;;13.01;92.26;100924.16;4992392;28;20150;-70
2023/03/19 01:46:31;;;;;;;24.50;19.58;;;12.60;99.90;;;12.96;92.07;100920.69;4992275;28;20185;-70
2023/03/19 01:49:20;;;;;;;23.50;20.38;;;12.60;99.90;;;12.92;92.05;100926.06;4993842;28;20142;-70
2023/03/19 01:51:55;;;;;;;25.00;20.25;;;12.60;99.90;;;12.91;92.21;100921.66;4992270;28;20050;-70
2023/03/19 01:54:32;;;;;;;26.27;19.95;;;12.50;99.90;;;12.29;91.62;100817.19;4993320;28;20050;-70
2023/03/19 01:57:17;;;;;;;21.70;18.00;;;12.50;99.90;;;12.85;92.21;100913.78;4992202;28;20054;-70
2023/03/19 02:00:09;;;;;;;23.50;18.63;;;12.50;99.90;;;12.80;91.88;100921.78;4993116;28;20064;-70
2023/03/19 02:02:47;;;;;;;20.95;17.45;;;12.40;99.90;;;12.76;92.02;100929.81;4992430;28;20550;-70
2023/03/19 02:05:38;;;;;;;20.95;16.77;;;12.40;99.90;;;12.75;91.99;100934.25;4992297;28;20076;-70
2023/03/19 02:08:14;;;;;;;20.15;16.85;;;12.40;99.90;;;12.70;91.88;100925.44;4991968;28;20046;-70
2023/03/19 02:10:46;;;;;;;19.63;16.27;;;12.30;99.90;;;12.60;91.81;100915.88;4991850;28;20104;-70
2023/03/19 02:13:15;;;;;;;17.45;15.32;;;12.30;99.90;;;12.66;91.75;100929.91;4993306;28;20046;-70
2023/03/19 02:15:45;;;;;;;16.95;15.00;;;12.30;99.90;;;12.65;91.89;100922.88;4993214;28;20050;-70
2023/03/19 02:18:14;;;;;;;18.58;15.15;;;12.30;99.90;;;12.63;91.98;100929.09;4993156;28;20459;-70
2023/03/19 02:20:51;;;;;;;17.38;14.23;;;12.20;99.90;;;12.56;91.93;100917.66;4991819;28;20530;-70
2023/03/19 02:23:33;;;;;;;18.30;14.15;;;12.20;99.90;;;12.63;91.92;100929.09;4991709;28;20058;-70
2023/03/19 02:26:09;;;;;;;18.25;14.57;;;12.30;99.90;;;12.60;91.96;100926.47;4991859;28;20050;-70
2023/03/19 02:28:41;;;;;;;18.88;14.35;;;12.20;99.90;;;12.52;92.53;100913.28;4991809;28;20377;-70
2023/03/19 02:31:11;;;;;;;15.95;12.95;;;12.20;99.90;;;12.63;92.77;100924.66;4991838;28;20046;-70
2023/03/19 02:33:40;;;;;;;17.23;13.70;;;12.30;99.90;;;12.54;93.39;100918.59;4991728;28;20051;-70
2023/03/19 02:36:13;;;;;;;18.30;15.40;;;12.20;99.90;;;12.49;94.20;100921.28;4991152;28;20137;-70
2023/03/19 02:38:44;;;;;;;20.83;16.48;;;12.20;99.90;;;12.45;94.27;100918.66;4993140;28;20078;-70
2023/03/19 02:41:13;;;;;;;18.30;16.25;;;12.10;99.90;;;12.35;94.74;100891.38;4992700;28;20452;-70
2023/03/19 02:43:43;;;;;;;23.73;18.63;;;12.10;99.90;;;12.52;94.51;100929.19;4991646;28;20085;-71
2023/03/19 02:46:13;;;;;;;22.02;17.92;;;12.20;99.90;;;12.26;94.98;100909.16;4991188;28;20050;-70
2023/03/19 02:48:42;;;;;;;21.15;18.65;;;12.10;99.90;;;12.42;95.34;100932.00;4992494;28;20049;-70
2023/03/19 02:51:12;;;;;;;21.98;19.67;;;12.00;99.90;;;12.41;94.96;100928.44;4991090;28;20368;-70
2023/03/19 02:53:40;;;;;;;24.35;20.08;;;12.10;99.90;;;12.29;95.37;100922.41;4991270;28;20415;-70
2023/03/19 02:56:09;;;;;;;24.02;19.55;;;12.00;99.90;;;12.25;95.71;100932.16;4992555;28;20470;-70
2023/03/19 02:58:39;;;;;;;22.05;19.52;;;11.90;99.90;;;12.19;95.94;100931.34;4992567;28;20054;-70
2023/03/19 03:01:08;;;;;;;23.42;20.85;;;11.90;99.90;;;12.17;95.94;100931.38;4991133;28;20054;-70
2023/03/19 03:03:36;;;;;;;23.13;20.60;;;11.80;99.90;;;12.29;95.81;100938.31;4991488;28;20042;-70
2023/03/19 03:06:05;;;;;;;25.42;21.27;;;11.90;99.90;;;12.23;95.81;100933.94;4992537;28;20069;-70
2023/03/19 03:08:35;;;;;;;26.27;22.00;;;11.90;99.90;;;12.25;95.79;100929.50;4992617;28;20105;-71
2023/03/19 03:11:04;;;;;;;29.20;22.40;;;11.90;99.90;;;12.17;95.82;100928.72;4991044;28;20066;-70
2023/03/19 03:13:32;;;;;;;26.83;22.23;;;11.90;99.90;;;12.18;95.92;100935.75;4993005;28;20492;-70
2023/03/19 03:16:04;;;;;;;26.13;22.52;;;11.80;99.90;;;12.25;95.96;100939.25;4996156;28;20053;-70
2023/03/19 03:18:32;;;;;;;30.65;25.50;;;11.90;99.90;;;12.18;95.81;100934.88;4995108;28;20042;-70
2023/03/19 03:21:01;;;;;;;30.92;26.77;;;11.90;99.90;;;12.23;95.88;100919.81;4996288;28;20125;-70
2023/03/19 03:23:29;;;;;;;34.55;28.75;;;11.90;99.90;;;12.20;95.74;100933.97;4996036;28;20081;-70
2023/03/19 03:25:59;;;;;;;31.60;27.45;;;11.90;99.90;;;12.19;95.80;100934.00;4994997;28;20518;-70
2023/03/19 03:28:28;;;;;;;33.00;27.58;;;11.90;99.90;;;12.20;95.43;100933.97;4996132;28;20061;-70
2023/03/19 03:30:59;;;;;;;34.65;28.58;;;11.90;99.90;;;12.20;95.45;100936.63;4996050;28;20125;-70
2023/03/19 03:33:29;;;;;;;38.22;28.73;;;11.90;99.90;;;12.18;95.47;100934.88;4995955;28;20049;-70
2023/03/19 03:35:58;;;;;;;34.85;29.35;;;11.90;99.90;;;12.10;95.77;100927.00;4995811;28;20575;-70
2023/03/19 03:38:27;;;;;;;36.88;29.30;;;11.80;99.90;;;12.01;95.92;100919.16;4995718;28;20518;-70
2023/03/19 03:40:55;;;;;;;41.33;30.98;;;11.70;99.90;;;12.02;95.94;100933.28;4996023;28;20074;-70
2023/03/19 03:43:26;;;;;;;39.90;30.13;;;11.70;99.90;;;12.04;95.78;100935.00;4994629;28;20046;-70
2023/03/19 03:45:55;;;;;;;40.35;30.75;;;11.70;99.90;;;11.95;95.69;100940.41;4994412;28;20496;-70
2023/03/19 03:48:23;;;;;;;39.63;29.70;;;11.60;99.90;;;11.99;95.70;100936.84;4994541;28;20045;-70
2023/03/19 03:50:53;;;;;;;40.38;30.17;;;11.70;99.90;;;12.02;95.79;100936.78;4994326;28;20073;-70
2023/03/19 03:53:26;;;;;;;39.97;30.33;;;11.70;99.90;;;12.03;95.50;100938.56;4994435;28;20058;-70
2023/03/19 03:55:55;;;;;;;39.88;29.73;;;11.70;99.90;;;11.94;95.61;100919.22;4995485;28;20484;-70
2023/03/19 03:58:25;;;;;;;40.53;30.65;;;11.60;99.90;;;12.12;95.51;100948.19;4994979;28;20423;-70
2023/03/19 04:00:55;;;;;;;38.72;30.08;;;11.70;99.90;;;12.15;95.15;100949.06;4995098;28;20181;-70
2023/03/19 04:03:25;;;;;;;42.55;30.90;;;11.80;99.90;;;12.13;95.07;100950.84;4994794;28;20578;-70
2023/03/19 04:05:56;;;;;;;43.53;32.58;;;11.80;99.90;;;12.17;95.22;100949.03;4994845;28;20060;-70
2023/03/19 04:08:24;;;;;;;44.60;31.90;;;11.80;99.90;;;12.10;95.28;100953.50;4996130;28;20046;-70
2023/03/19 04:10:52;;;;;;;45.10;31.80;;;11.70;99.90;;;11.98;95.29;100958.91;4996346;28;20093;-70
2023/03/19 04:13:21;;;;;;;45.95;32.67;;;11.60;99.90;;;11.94;95.40;100956.34;4994659;28;20073;-70
2023/03/19 04:15:52;;;;;;;45.70;32.28;;;11.60;99.90;;;11.88;95.33;100949.31;4994717;28;20050;-70
2023/03/19 04:18:22;;;;;;;50.00;32.28;;;11.50;99.90;;;11.90;95.40;100958.13;4994470;28;20415;-70
2023/03/19 04:20:51;;;;;;;48.47;33.00;;;11.50;99.90;;;11.83;95.38;100950.25;4996191;28;20054;-70
2023/03/19 04:23:21;;;;;;;52.58;34.75;;;11.50;99.90;;;11.69;95.46;100929.16;4994570;28;20053;-70
2023/03/19 04:25:50;;;;;;;48.70;34.10;;;11.50;99.90;;;11.77;95.61;100953.81;4993380;28;20063;-70
2023/03/19 04:28:19;;;;;;;54.58;33.35;;;11.50;99.90;;;11.75;95.58;100956.47;4995527;28;20449;-70
2023/03/19 04:30:47;;;;;;;55.90;35.63;;;11.40;99.90;;;11.71;95.75;100953.88;4995513;28;20042;-70
2023/03/19 04:33:16;;;;;;;51.17;34.20;;;11.40;99.90;;;11.70;96.19;100962.69;4994416;28;20113;-70
2023/03/19 04:35:45;;;;;;;60.35;36.88;;;11.40;99.90;;;11.69;96.21;100966.25;4994304;28;20047;-70
2023/03/19 04:38:13;;;;;;;56.45;34.75;;;11.40;99.90;;;11.70;96.45;100966.25;4995426;28;20046;-70
2023/03/19 04:40:43;;;;;;;54.10;34.92;;;11.40;99.90;;;11.69;96.47;100964.47;4995455;28;20075;-70
2023/03/19 04:43:11;;;;;;;58.25;34.33;;;11.40;99.90;;;11.61;96.36;100958.31;4994218;28;20054;-70
2023/03/19 04:45:44;;;;;;;56.38;34.08;;;11.40;99.90;;;11.73;96.41;100981.22;4994167;28;20410;-70
2023/03/19 04:48:13;;;;;;;55.25;33.90;;;11.40;99.90;;;11.65;96.60;100973.31;4995277;28;20137;-70
2023/03/19 04:50:41;;;;;;;56.42;34.38;;;11.30;99.90;;;11.64;96.48;100991.84;4994014;28;20050;-70
2023/03/19 04:53:10;;;;;;;55.00;33.22;;;11.30;99.90;;;11.64;96.58;100966.25;4993578;28;20062;-70
2023/03/19 04:55:39;;;;;;;56.70;32.67;;;11.30;99.90;;;11.74;96.32;100988.28;4993732;28;20088;-70
2023/03/19 04:58:15;;;;;;;52.67;32.60;;;11.40;99.90;;;11.78;96.07;100990.03;4993970;28;20085;-70
2023/03/19 05:00:46;;;;;;;;;;;11.40;99.90;;;11.76;96.13;100987.41;4994369;28;20047;-70
2023/03/19 05:03:19;;;;;;;54.63;32.10;;;11.40;99.90;;;11.68;95.88;101002.47;4994041;28;19980;-71
2023/03/19 05:05:48;;;;;;;60.75;35.40;;;11.40;99.90;;;11.67;96.45;100999.84;4993672;28;20038;-70
2023/03/19 05:08:16;;;;;;;57.08;34.05;;;11.30;99.90;;;11.59;96.27;100994.53;4993509;28;20050;-70
2023/03/19 05:10:46;;;;;;;60.65;36.88;;;11.30;99.90;;;11.58;96.74;101003.38;4993487;28;20049;-70
2023/03/19 05:13:16;;;;;;;60.38;35.03;;;11.20;99.90;;;11.54;96.84;100998.09;4993650;28;20054;-71
2023/03/19 05:15:54;;;;;;;67.68;38.72;;;11.20;99.90;;;11.55;96.92;101006.06;4993531;28;20065;-70
2023/03/19 05:18:23;;;;;;;60.55;36.50;;;11.20;99.90;;;11.46;97.50;101006.09;4993401;28;20062;-70
2023/03/19 05:20:53;;;;;;;66.32;37.95;;;11.10;99.90;;;11.45;97.78;101019.34;4993237;28;20043;-70
2023/03/19 05:23:23;;;;;;;68.03;36.72;;;11.10;99.90;;;11.53;97.76;101023.72;4993202;28;20133;-70
2023/03/19 05:26:02;;;;;;;73.78;38.83;;;11.20;99.90;;;11.53;97.73;101017.53;4993688;28;20050;-70
2023/03/19 05:28:50;;;;;;;72.80;38.75;;;11.20;99.90;;;11.45;98.00;101020.25;4994506;28;20124;-70
2023/03/19 05:31:25;;;;;;;76.00;40.67;;;11.10;99.90;;;11.40;98.20;101015.88;4993295;28;20458;-70
2023/03/19 05:33:54;;;;;;;76.75;39.13;;;11.10;99.90;;;11.40;98.58;101023.81;4993017;28;20052;-70
2023/03/19 05:36:23;;;;;;;97.40;43.53;;;11.10;99.90;;;11.30;98.98;101017.69;4992883;28;20042;-70
2023/03/19 05:38:58;;;;;;;90.95;45.10;;;11.00;99.90;;;11.39;98.92;101033.50;4993104;28;20089;-70
2023/03/19 05:41:33;;;;;;;86.75;43.38;;;11.00;99.90;;;11.38;98.89;101033.53;4992928;28;20056;-70
2023/03/19 05:44:06;;;;;;;82.93;41.85;;;11.10;99.90;;;11.42;98.89;101035.28;4993154;28;20050;-70
2023/03/19 05:46:45;;;;;;;76.05;40.83;;;11.10;99.90;;;11.37;99.01;101029.09;4992940;28;20108;-70
2023/03/19 05:49:14;;;;;;;78.13;40.90;;;11.10;99.90;;;11.27;99.04;101015.03;4993187;28;20467;-70
2023/03/19 05:51:42;;;;;;;76.63;40.90;;;11.10;99.90;;;11.38;99.01;101033.53;4992450;28;20340;-70
2023/03/19 05:54:11;;;;;;;78.20;42.25;;;11.00;99.90;;;11.33;99.16;101040.59;4992619;28;20046;-70
2023/03/19 05:56:49;;;;;;;80.30;42.58;;;11.00;99.90;;;11.32;99.24;101034.44;4992729;28;20043;-70
2023/03/19 05:59:34;;;;;;;87.47;41.67;;;11.00;99.90;;;11.07;99.33;100994.84;4992672;28;20508;-70
2023/03/19 06:02:16;;;;;;;87.30;43.22;;;11.00;99.90;;;11.33;99.41;101030.88;4992586;28;20081;-70
2023/03/19 06:04:45;;;;;;;84.75;42.65;;;11.00;99.90;;;11.38;99.42;101037.03;4992665;28;20389;-70
2023/03/19 06:07:15;;;;;;;82.55;41.88;;;11.10;99.90;;;11.30;99.36;101030.91;4992707;28;20050;-70
2023/03/19 06:09:44;;;;;;;86.07;42.55;;;11.10;99.90;;;11.28;99.69;101032.69;4992513;28;20054;-70
2023/03/19 06:12:13;;;;;;;93.65;44.45;;;11.00;99.90;;;11.33;99.90;101045.88;4992439;28;20073;-69
2023/03/19 06:15:18;;;;;;;94.38;45.05;;;11.10;99.90;;;11.35;99.83;101046.75;4990436;28;20082;-70
2023/03/19 06:17:56;;;;;;;94.95;44.35;;;11.10;99.90;;;11.15;99.93;101044.19;4993798;28;20053;-70
2023/03/19 06:20:25;;;;;;;97.25;46.15;;;11.10;99.90;;;11.38;99.96;101050.28;4993746;28;20056;-71
2023/03/19 06:22:53;;;;;;;95.90;45.75;;;11.10;99.90;;;10.71;99.75;100948.22;4992347;28;20046;-70
2023/03/19 06:25:22;;;;;;;94.70;44.40;;;11.10;99.90;;;11.19;100.00;101053.91;4992241;28;20099;-70
2023/03/19 06:27:52;;;;;;;102.28;46.70;;;11.00;99.90;;;11.31;100.00;101047.66;4992051;28;20050;-71
2023/03/19 06:30:28;;;;;;;96.65;45.45;;;11.10;99.90;;;11.36;100.00;101060.00;4992353;28;20042;-70
2023/03/19 06:32:59;;;;;;;95.55;46.05;;;11.10;99.90;;;11.37;100.00;101069.72;4992238;28;20058;-70
2023/03/19 06:35:28;;;;;;;91.93;44.33;;;11.10;99.90;;;11.39;100.00;101073.25;4992096;28;20053;-70
2023/03/19 06:37:57;;;;;;;88.68;43.17;;;11.10;99.90;;;11.42;100.00;101073.22;4991927;28;20129;-71
2023/03/19 06:40:25;;;;;;;84.70;42.55;;;11.20;99.90;;;11.46;100.00;101080.25;4993288;28;20053;-70
2023/03/19 06:42:54;;;;;;;87.80;44.38;;;11.20;99.90;;;11.40;100.00;101066.19;4993399;28;20046;-70
2023/03/19 06:45:22;;;;;;;77.65;41.50;;;11.20;99.90;;;11.49;100.00;101082.91;4993200;28;20108;-70
2023/03/19 06:47:52;;;;;;;78.57;41.30;;;11.20;99.90;;;11.31;100.00;101047.66;4991326;28;20458;-70
2023/03/19 06:50:21;;;;;;;78.30;40.85;;;11.20;99.90;;;11.50;100.00;101081.13;4991751;28;20090;-70
2023/03/19 06:52:49;;;;;;;78.97;41.42;;;11.20;99.90;;;11.51;100.00;101078.50;4992956;28;20424;-71
2023/03/19 06:55:19;;;;;;;75.47;39.05;;;11.20;99.90;;;11.22;100.00;101030.06;4993168;28;20074;-70
2023/03/19 06:57:50;;;;;;;75.10;40.30;;;11.20;99.90;;;11.44;100.00;101089.97;5008081;28;20053;-70
2023/03/19 07:00:19;;;;;;;;;;;11.20;99.90;;;11.37;100.00;101060.88;4993594;28;20293;-70
2023/03/19 07:02:48;;;;;;;79.93;38.03;;;11.20;99.90;;;11.58;100.00;101084.63;4993037;28;19976;-70
2023/03/19 07:05:18;;;;;;;73.05;39.30;;;11.30;99.90;;;11.57;100.00;101089.06;4992960;28;20104;-70
2023/03/19 07:07:46;;;;;;;79.07;39.22;;;11.30;99.90;;;11.61;100.00;101088.13;4993193;28;20054;-70
2023/03/19 07:10:14;;;;;;;75.55;39.10;;;11.30;99.90;;;11.68;100.00;101092.56;4992958;28;20129;-70
2023/03/19 07:12:43;;;;;;;67.43;36.15;;;11.30;99.90;;;11.69;100.00;101098.75;4992836;28;20046;-70
2023/03/19 07:15:12;;;;;;;68.70;37.80;;;11.40;99.90;;;11.71;100.00;101096.97;4993238;28;20043;-70
2023/03/19 07:17:41;;;;;;;64.13;36.75;;;11.40;99.90;;;11.76;99.99;101108.41;4992528;28;20455;-71
2023/03/19 07:20:11;;;;;;;65.35;34.97;;;11.40;99.90;;;11.82;99.99;101115.44;4992910;28;20129;-70
2023/03/19 07:22:41;;;;;;;63.38;35.42;;;11.50;99.90;;;11.74;99.69;101104.88;4993313;28;20050;-70
2023/03/19 07:25:10;;;;;;;74.90;36.67;;;11.50;99.90;;;11.83;99.75;101120.72;4993221;28;20451;-71
2023/03/19 07:27:39;;;;;;;65.93;37.85;;;11.50;99.90;;;11.67;99.58;101088.13;4992908;28;20192;-71
2023/03/19 07:30:09;;;;;;;66.18;36.50;;;11.60;99.90;;;11.88;99.45;101126.00;4993023;28;20046;-70
2023/03/19 07:32:38;;;;;;;;;;;11.60;99.90;;;11.88;99.49;101126.00;4993423;28;20046;-70
2023/03/19 07:35:09;;;;;;;68.43;37.30;;;11.60;99.90;;;11.89;99.31;101127.75;4992981;28;19926;-70
2023/03/19 07:37:37;;;;;;;71.07;38.75;;;11.60;99.90;;;11.97;99.50;101140.09;4992841;28;20049;-70
2023/03/19 07:40:09;;;;;;;76.45;40.63;;;11.60;99.90;;;11.87;99.36;101129.53;4992729;28;20042;-70
2023/03/19 07:42:38;;;;;;;75.28;39.65;;;11.60;99.90;;;11.94;99.56;101132.16;4991265;28;20455;-70
2023/03/19 07:45:08;;;;;;;77.35;40.90;;;11.70;99.90;;;11.92;99.23;101136.59;4992698;28;20369;-70
2023/03/19 07:47:36;;;;;;;80.18;41.90;;;11.70;99.90;;;11.91;99.47;101134.81;4992737;28;20096;-70
2023/03/19 07:50:06;;;;;;;80.40;41.78;;;11.60;99.90;;;11.96;99.56;101134.81;4992571;28;20569;-70
2023/03/19 07:52:35;;;;;;;80.50;42.17;;;11.70;99.90;;;12.03;99.45;101147.13;4992770;28;20074;-70
2023/03/19 07:55:04;;;;;;;79.10;41.63;;;11.70;99.90;;;12.01;99.39;101146.25;4991261;28;20054;-70
2023/03/19 07:57:33;;;;;;;78.90;41.40;;;11.70;99.90;;;12.03;99.22;101157.72;4992357;28;20042;-70
2023/03/19 08:00:02;;;;;;;81.50;41.87;;;11.70;99.90;;;11.99;99.51;101145.38;4993645;28;20074;-70
2023/03/19 08:02:41;;;;;;;99.38;47.20;;;11.70;99.90;;;11.95;99.64;101154.25;4995813;28;20109;-70
2023/03/19 08:05:11;;;;;;;97.50;46.92;;;11.60;99.90;;;11.93;99.53;101142.75;4995969;28;20096;-70
2023/03/19 08:07:40;;;;;;;90.88;45.53;;;11.70;99.90;;;12.07;99.57;101162.13;4995974;28;20104;-71
2023/03/19 08:10:10;;;;;;;93.82;45.03;;;11.80;99.90;;;12.03;99.54;101160.38;4995815;28;20048;-70
2023/03/19 08:12:41;;;;;;;107.85;47.03;;;11.70;99.90;;;11.85;99.45;101132.19;4995775;28;20046;-70
2023/03/19 08:15:11;;;;;;;97.13;46.63;;;11.80;99.90;;;12.06;99.58;101168.34;4995916;28;20125;-69
2023/03/19 08:17:41;;;;;;;;;;;11.70;99.90;;;11.98;99.74;101157.75;4996074;28;20090;-70
2023/03/19 08:20:15;;;;;;;85.22;39.47;;;11.70;99.90;;;12.02;99.72;101169.25;4994322;28;19940;-69
2023/03/19 08:22:43;;;;;;;90.63;40.60;;;11.70;99.90;;;12.01;99.82;101165.69;4995468;28;20053;-68
2023/03/19 08:25:12;;;;;;;90.20;41.75;;;11.70;99.90;;;11.81;100.00;101138.41;4995498;28;20042;-69
2023/03/19 08:27:49;;;;;;;102.57;46.80;;;11.70;99.90;;;12.10;100.00;101178.03;4995154;28;20045;-69
2023/03/19 08:30:21;;;;;;;98.63;46.67;;;11.80;99.90;;;12.10;100.00;101170.94;4995525;28;20121;-69
2023/03/19 08:32:50;;;;;;;95.32;43.80;;;11.80;99.90;;;12.13;100.00;101185.97;4994045;28;20496;-71
2023/03/19 08:35:18;;;;;;;98.15;44.95;;;11.80;99.90;;;12.20;100.00;101192.97;4995335;28;20075;-71
2023/03/19 08:37:47;;;;;;;98.38;45.58;;;11.90;99.90;;;12.25;100.00;101197.34;4995232;28;20073;-70
2023/03/19 08:40:15;;;;;;;97.97;43.65;;;11.90;99.90;;;12.29;99.77;101192.94;4994059;28;20043;-71
2023/03/19 08:42:45;;;;;;;89.07;39.53;;;12.00;99.90;;;12.27;99.49;101194.72;4995316;28;20222;-70
2023/03/19 08:45:15;;;;;;;83.22;37.75;;;12.00;99.90;;;12.21;99.51;101200.06;4994905;28;20046;-70
2023/03/19 08:47:44;;;;;;;82.95;37.72;;;11.90;99.90;;;12.27;99.35;101197.38;4994036;28;20050;-71
2023/03/19 08:50:12;;;;;;;80.57;37.03;;;11.90;99.90;;;12.20;99.33;101187.66;4995035;28;20057;-71
2023/03/19 08:52:41;;;;;;;86.90;37.80;;;11.90;99.90;;;11.56;98.89;101076.69;4994779;28;20133;-72
2023/03/19 08:55:10;;;;;;;85.00;36.63;;;11.90;99.90;;;12.29;99.20;101207.06;4995058;28;20046;-71
2023/03/19 08:57:39;;;;;;;76.43;36.40;;;11.90;99.90;;;12.32;99.02;101214.13;4994921;28;20039;-72
2023/03/19 09:00:11;;;;;;;77.20;34.05;;;12.00;99.90;;;12.07;98.88;101167.44;4995104;28;20369;-71
2023/03/19 09:02:39;;;;;;;64.63;30.77;;;12.00;99.90;;;12.36;98.78;101213.22;4994918;28;20089;-71
2023/03/19 09:05:08;;;;;;;58.95;27.58;;;12.00;99.90;;;12.28;98.25;101217.69;4993587;28;20579;-72
2023/03/19 09:07:37;;;;;;;64.05;30.00;;;12.00;99.90;;;12.30;98.17;101205.31;4994853;28;20116;-71
2023/03/19 09:10:07;;;;;;;63.92;31.42;;;12.00;99.90;;;12.45;98.06;101206.09;4994407;28;20041;-71
2023/03/19 09:12:35;;;;;;;56.38;28.65;;;12.10;99.90;;;12.43;97.59;101223.78;4994173;28;20046;-71
2023/03/19 09:15:05;;;;;;;46.83;25.63;;;12.10;99.90;;;12.43;97.32;101218.47;4993540;28;20042;-69
2023/03/19 09:17:35;;;;;;;44.90;23.92;;;12.10;99.90;;;12.54;97.06;101215.78;4994470;28;20054;-70
2023/03/19 09:20:06;;;;;;;54.35;26.00;;;12.20;99.90;;;11.86;96.45;101098.63;4994778;28;20057;-71
2023/03/19 09:22:34;;;;;;;51.90;28.20;;;12.20;99.90;;;12.48;96.23;101224.66;4994648;28;20046;-71
2023/03/19 09:25:03;;;;;;;54.53;28.60;;;12.20;99.90;;;12.53;96.04;101219.28;4994314;28;20531;-72
2023/03/19 09:27:31;;;;;;;54.22;28.40;;;12.20;99.90;;;12.51;96.32;101219.31;4994367;28;20046;-73
2023/03/19 09:30:00;;;;;;;58.88;29.73;;;12.20;99.90;;;12.42;96.07;101230.00;4994297;28;20052;-71
2023/03/19 09:32:28;;;;;;;59.35;29.65;;;12.20;99.90;;;12.44;96.10;101217.59;4993986;28;20042;-70
2023/03/19 09:34:58;;;;;;;56.65;29.83;;;12.20;99.90;;;12.53;96.25;101265.28;4993845;28;20046;-70
2023/03/19 09:37:26;;;;;;;64.57;29.88;;;12.20;99.90;;;12.58;96.18;101230.78;4992396;28;20050;-70
2023/03/19 09:39:55;;;;;;;62.90;29.90;;;12.30;99.90;;;12.68;95.87;101243.06;4993472;28;20122;-70
2023/03/19 09:42:44;;;;;;;58.97;30.23;;;12.30;99.90;;;12.72;95.84;101255.44;4992617;28;20046;-71
2023/03/19 09:45:16;;;;;;;60.17;31.23;;;12.30;99.90;;;12.64;95.70;101236.91;4993950;28;20042;-70
2023/03/19 09:47:47;;;;;;;65.57;32.40;;;12.40;99.90;;;12.86;95.55;101268.59;4993824;28;20047;-71
2023/03/19 09:50:21;;;;;;;66.78;32.42;;;12.50;99.90;;;12.67;95.63;101246.63;4993827;28;20046;-70
2023/03/19 09:52:58;;;;;;;64.30;32.58;;;12.50;99.90;;;12.64;95.63;101238.66;4993870;28;20054;-71
2023/03/19 09:55:40;;;;;;;58.50;31.75;;;12.40;99.90;;;12.84;95.48;101260.66;4993722;28;20048;-71
2023/03/19 09:58:15;;;;;;;56.97;32.08;;;12.50;99.90;;;12.93;95.16;101273.00;4993522;28;20133;-71
2023/03/19 10:00:49;;;;;;;59.55;32.05;;;12.50;99.90;;;12.93;95.00;101273.84;4993942;28;20050;-71
2023/03/19 10:03:43;;;;;;;63.28;33.97;;;12.60;99.90;;;12.88;94.73;101280.97;4993578;28;20047;-71
2023/03/19 10:06:28;;;;;;;63.58;34.30;;;12.60;99.90;;;12.94;94.50;101272.97;4993409;28;20447;-71
2023/03/19 10:09:18;;;;;;;58.08;32.67;;;12.60;99.90;;;12.92;94.52;101276.53;4993524;28;20058;-71
2023/03/19 10:12:07;;;;;;;53.05;31.00;;;12.60;99.90;;;12.92;94.23;101285.38;4993277;28;20566;-71
2023/03/19 10:15:04;;;;;;;54.33;30.55;;;12.60;99.90;;;13.02;94.21;101284.44;4992254;28;20074;-72
2023/03/19 10:17:36;;;;;;;58.53;31.65;;;12.60;99.90;;;13.05;94.40;101291.50;4993511;28;20070;-71